Time;durP1;ratioP1;P1;durP2;ratioP2;P2;SDS_P1;SDS_P2;PMS_P1;PMS_P2;Temp;Humidity;BMP_temperature;BMP_pressure;BME280_temperature;BME280_humidity;BME280_pressure;Samples;Min_cycle;Max_cycle;Signal;HPM_P1;HPM_P2
2022/05/23 00:03:06;;;;;;;31.63;29.60;;;;;;;13.46;100.00;100475.56;5012921;28;20057;-82
2022/05/23 00:05:33;;;;;;;33.17;30.88;;;;;;;13.68;100.00;100475.84;5030384;28;20061;-85
2022/05/23 00:08:02;;;;;;;31.40;29.20;;;;;;;13.70;100.00;100482.53;5033724;28;20053;-85
2022/05/23 00:10:29;;;;;;;38.50;35.13;;;;;;;13.86;100.00;100482.91;5033419;28;20390;-86
2022/05/23 00:12:56;;;;;;;30.10;28.10;;;;;;;13.61;100.00;100472.44;5033306;28;20049;-85
2022/05/23 00:15:31;;;;;;;32.88;30.95;;;;;;;13.73;100.00;100479.41;5033675;28;20072;-84
2022/05/23 00:18:01;;;;;;;29.45;27.17;;;;;;;13.37;100.00;100472.41;5029946;28;20123;-83
2022/05/23 00:20:34;;;;;;;30.85;28.85;;;;;;;13.58;100.00;100472.91;5033191;28;20049;-85
2022/05/23 00:23:07;;;;;;;;;;;;;;;13.58;100.00;100476.38;5034414;28;20076;-85
2022/05/23 00:25:35;;;;;;;29.50;27.60;;;;;;;13.88;100.00;100480.78;5032742;28;19921;-82
2022/05/23 00:28:06;;;;;;;30.00;28.00;;;;;;;13.87;100.00;100482.66;5032898;28;20049;-85
2022/05/23 00:30:39;;;;;;;29.50;27.80;;;;;;;14.34;100.00;100487.94;5033261;28;20389;-82
2022/05/23 00:35:59;;;;;;;32.28;30.27;;;;;;;14.36;100.00;100490.38;5031659;28;20183;-86
2022/05/23 00:38:26;;;;;;;41.00;37.95;;;;;;;14.18;100.00;100486.78;5033032;28;20046;-84
2022/05/23 00:43:41;;;;;;;33.13;30.95;;;;;;;14.10;100.00;100475.66;5029270;28;20045;-85
2022/05/23 00:46:15;;;;;;;31.73;29.92;;;;;;;14.07;100.00;100482.31;5033113;28;20041;-82
2022/05/23 00:48:42;;;;;;;33.40;31.38;;;;;;;13.52;100.00;100478.16;5033030;28;20049;-85
2022/05/23 00:51:16;;;;;;;33.90;31.80;;;;;;;13.75;100.00;100477.31;5033448;28;20077;-85
2022/05/23 00:53:56;;;;;;;32.15;30.15;;;;;;;14.21;100.00;100475.63;5032820;28;20452;-84
2022/05/23 00:56:33;;;;;;;32.83;30.77;;;;;;;14.23;100.00;100479.94;5032748;28;20100;-81
2022/05/23 00:59:04;;;;;;;34.00;31.80;;;;;;;14.43;100.00;100483.84;5033633;28;20054;-85
2022/05/23 01:01:39;;;;;;;33.38;30.98;;;;;;;14.32;100.00;100483.88;5034421;28;20103;-81
2022/05/23 01:04:09;;;;;;;31.48;29.45;;;;;;;14.02;100.00;100486.72;5036405;28;20050;-85
2022/05/23 01:06:36;;;;;;;31.05;29.05;;;;;;;13.22;100.00;100472.00;5032829;28;20544;-84
2022/05/23 01:09:04;;;;;;;28.45;26.15;;;;;;;14.04;100.00;100479.25;5036527;28;20105;-81
2022/05/23 01:11:30;;;;;;;28.63;26.73;;;;;;;13.75;100.00;100476.50;5036786;28;20114;-83
2022/05/23 01:13:57;;;;;;;29.30;27.30;;;;;;;14.08;100.00;100478.59;5036801;28;20104;-84
2022/05/23 01:16:31;;;;;;;29.30;26.58;;;;;;;14.11;100.00;100480.78;5036479;28;20057;-84
2022/05/23 01:19:02;;;;;;;29.40;27.48;;;;;;;14.05;100.00;100471.03;5036158;28;20059;-85
2022/05/23 01:21:51;;;;;;;29.42;27.40;;;;;;;14.23;100.00;100469.28;5037119;28;20114;-85
2022/05/23 01:24:33;;;;;;;30.63;28.60;;;;;;;14.05;100.00;100463.03;5032681;28;20049;-82
2022/05/23 01:27:05;;;;;;;31.27;29.23;;;;;;;13.97;100.00;100476.72;5031900;28;20568;-82
2022/05/23 01:29:35;;;;;;;33.72;30.25;;;;;;;13.54;100.00;100467.22;5036173;28;20139;-81
2022/05/23 01:32:05;;;;;;;32.63;30.60;;;;;;;13.89;100.00;100469.91;5036320;28;20049;-82
2022/05/23 01:34:32;;;;;;;31.70;29.38;;;;;;;13.82;100.00;100460.38;5036885;28;20046;-82
2022/05/23 01:37:04;;;;;;;30.40;28.60;;;;;;;13.88;100.00;100462.13;5036840;28;20050;-82
2022/05/23 01:39:31;;;;;;;31.90;29.27;;;;;;;13.97;100.00;100463.38;5032808;28;20046;-84
2022/05/23 01:41:57;;;;;;;32.13;29.92;;;;;;;13.44;100.00;100473.13;5035953;28;20056;-83
2022/05/23 01:44:36;;;;;;;32.67;30.45;;;;;;;13.89;100.00;100475.25;5036186;28;20057;-83
2022/05/23 01:47:23;;;;;;;34.90;32.40;;;;;;;13.51;100.00;100473.03;5035214;28;20115;-81
2022/05/23 01:49:50;;;;;;;32.85;30.35;;;;;;;13.41;100.00;100470.94;5035919;28;20045;-81
2022/05/23 01:52:19;;;;;;;31.33;29.27;;;;;;;13.21;100.00;100473.06;5036520;28;20067;-84
2022/05/23 01:54:46;;;;;;;31.25;28.85;;;;;;;12.97;100.00;100478.34;5036079;28;20132;-84
2022/05/23 01:57:14;;;;;;;32.63;30.63;;;;;;;13.09;100.00;100477.56;5035575;28;20049;-81
2022/05/23 02:02:26;;;;;;;30.80;28.80;;;;;;;13.56;100.00;100475.00;5127956;23;20064;-81
2022/05/23 02:05:14;;;;;;;31.10;28.90;;;;;;;13.29;100.00;100468.25;5015790;28;20474;-81
2022/05/23 02:07:42;;;;;;;32.78;30.55;;;;;;;13.47;100.00;100472.69;5016339;28;20046;-81
2022/05/23 02:10:37;;;;;;;35.00;32.75;;;;;;;13.35;100.00;100471.84;5015933;28;20081;-84
2022/05/23 02:13:05;;;;;;;34.97;32.63;;;;;;;13.55;100.00;100474.19;5020040;28;20049;-81
2022/05/23 02:15:35;;;;;;;32.15;29.40;;;;;;;13.54;100.00;100472.56;5031880;28;20053;-85
2022/05/23 02:18:04;;;;;;;33.92;31.27;;;;;;;13.39;100.00;100470.34;5016059;28;20469;-85
2022/05/23 02:20:31;;;;;;;31.83;29.48;;;;;;;13.75;100.00;100481.84;4996877;28;20113;-81
2022/05/23 02:22:59;;;;;;;33.17;30.83;;;;;;;13.63;100.00;100486.38;5016291;28;20041;-85
2022/05/23 02:25:27;;;;;;;36.55;33.40;;;;;;;13.93;100.00;100486.25;5016018;28;20054;-81
2022/05/23 02:27:56;;;;;;;33.53;31.42;;;;;;;13.91;100.00;100489.16;5015669;28;20462;-83
2022/05/23 02:30:36;;;;;;;39.08;36.17;;;;;;;13.86;100.00;100489.06;5015137;28;20133;-84
2022/05/23 02:33:03;;;;;;;39.15;35.70;;;;;;;13.51;100.00;100479.16;5005036;28;20058;-81
2022/05/23 02:35:48;;;;;;;42.35;38.63;;;;;;;13.65;100.00;100490.44;5016060;28;20061;-85
2022/05/23 02:38:16;;;;;;;45.40;41.08;;;;;;;13.74;100.00;100489.06;5016168;28;20050;-85
2022/05/23 02:40:44;;;;;;;45.30;41.00;;;;;;;13.55;100.00;100484.84;5016867;28;20049;-82
2022/05/23 02:43:20;;;;;;;45.40;41.00;;;;;;;13.75;100.00;100481.84;5015906;28;20049;-85
2022/05/23 02:45:51;;;;;;;44.75;40.25;;;;;;;13.85;100.00;100491.94;5015799;28;20049;-80
2022/05/23 02:48:22;;;;;;;42.95;38.55;;;;;;;13.67;100.00;100496.34;5015661;28;20501;-84
2022/05/23 02:50:49;;;;;;;47.55;42.85;;;;;;;13.95;100.00;100495.66;5015738;28;20058;-85
2022/05/23 02:53:19;;;;;;;49.00;44.13;;;;;;;13.96;100.00;100501.81;5015440;28;20045;-85
2022/05/23 02:55:47;;;;;;;44.65;40.05;;;;;;;13.67;100.00;100498.22;5014344;28;20120;-81
2022/05/23 02:58:17;;;;;;;61.63;44.08;;;;;;;13.89;100.00;100496.59;5014623;28;20119;-85
2022/05/23 03:00:44;;;;;;;46.63;41.90;;;;;;;13.83;100.00;100505.53;5015083;28;20125;-85
2022/05/23 03:03:11;;;;;;;45.22;40.70;;;;;;;13.85;100.00;100503.44;5014551;28;20061;-84
2022/05/23 03:05:40;;;;;;;49.83;45.13;;;;;;;13.63;100.00;100505.06;5015129;28;20383;-85
2022/05/23 03:08:11;;;;;;;46.70;42.70;;;;;;;13.55;100.00;100503.53;5014686;28;20149;-81
2022/05/23 03:10:48;;;;;;;49.35;44.85;;;;;;;13.67;100.00;100506.22;5015172;28;20050;-84
2022/05/23 03:13:25;;;;;;;50.88;46.60;;;;;;;13.63;100.00;100500.53;5010686;28;20108;-85
2022/05/23 03:15:54;;;;;;;54.35;50.25;;;;;;;13.69;100.00;100501.47;5011013;28;20061;-81
2022/05/23 03:18:24;;;;;;;54.17;50.05;;;;;;;13.36;100.00;100504.66;5014968;28;20046;-85
2022/05/23 03:20:56;;;;;;;51.45;47.22;;;;;;;13.60;100.00;100495.66;5014485;28;20056;-82
2022/05/23 03:28:53;;;;;;;52.78;48.65;;;;;;;13.58;100.00;100504.94;4982236;28;20129;-84
2022/05/23 03:31:20;;;;;;;53.08;48.88;;;;;;;13.58;100.00;100502.25;5016467;28;20088;-82
2022/05/23 03:33:55;;;;;;;50.85;46.75;;;;;;;13.72;100.00;100498.34;5014896;28;20054;-85
2022/05/23 03:36:27;;;;;;;51.28;47.08;;;;;;;13.88;100.00;100510.16;5011680;28;20049;-82
2022/05/23 03:38:55;;;;;;;50.10;46.00;;;;;;;13.66;100.00;100515.28;5012741;28;20120;-84
2022/05/23 03:41:23;;;;;;;49.83;45.72;;;;;;;13.95;100.00;100505.53;5013584;28;20111;-84
2022/05/23 03:43:50;;;;;;;51.42;47.33;;;;;;;13.83;100.00;100510.88;5014521;28;20049;-84
2022/05/23 03:46:17;;;;;;;51.25;47.45;;;;;;;14.04;100.00;100508.63;5001315;28;20045;-81
2022/05/23 03:48:46;;;;;;;47.95;44.25;;;;;;;13.75;100.00;100509.34;5014137;28;20042;-85
2022/05/23 03:51:17;;;;;;;49.60;45.78;;;;;;;14.04;100.00;100505.97;5014969;28;20049;-81
2022/05/23 03:53:50;;;;;;;48.70;44.80;;;;;;;14.16;100.00;100512.94;5014054;28;20579;-82
2022/05/23 03:56:19;;;;;;;49.20;45.40;;;;;;;14.12;100.00;100509.09;5013545;28;20068;-83
2022/05/23 03:58:52;;;;;;;49.90;46.30;;;;;;;17.24;100.00;100505.09;5017081;28;20116;-83
2022/05/23 04:01:21;;;;;;;48.13;44.63;;;;;;;17.68;100.00;100502.22;5017307;28;20530;-81
2022/05/23 04:03:49;;;;;;;47.95;44.25;;;;;;;14.92;100.00;100526.25;4994335;28;20113;-81
2022/05/23 04:06:19;;;;;;;47.53;43.55;;;;;;;14.77;100.00;100516.06;4994987;28;20061;-82
2022/05/23 04:08:51;;;;;;;47.83;44.33;;;;;;;14.73;100.00;100520.25;4994443;28;20046;-83
2022/05/23 04:11:18;;;;;;;49.17;45.45;;;;;;;14.71;100.00;100519.69;4996720;28;20082;-81
2022/05/23 04:13:49;;;;;;;47.70;43.88;;;;;;;14.93;100.00;100517.16;4994488;28;20046;-80
2022/05/23 04:16:16;;;;;;;48.80;45.00;;;;;;;14.95;100.00;100525.78;4994712;28;20054;-80
2022/05/23 04:18:43;;;;;;;44.13;40.40;;;;;;;14.93;100.00;100519.03;4994536;28;20109;-82
2022/05/23 04:21:12;;;;;;;48.28;44.47;;;;;;;14.95;100.00;100512.41;4994511;28;20109;-82
2022/05/23 04:23:41;;;;;;;46.13;42.83;;;;;;;14.97;100.00;100510.28;4994633;28;20054;-82
2022/05/23 04:26:09;;;;;;;31.70;29.10;;;;;;;14.86;100.00;100516.50;4994444;28;20112;-81
2022/05/23 04:28:39;;;;;;;26.83;24.75;;;;;;;15.15;100.00;100516.47;4994428;28;20050;-82
2022/05/23 04:31:13;;;;;;;27.48;25.27;;;;;;;14.76;100.00;100517.09;4994995;28;20462;-83
2022/05/23 04:36:25;;;;;;;26.92;25.23;;;;;;;15.47;100.00;100509.53;4983437;28;20053;-82
2022/05/23 04:38:54;;;;;;;27.15;25.25;;;;;;;15.40;100.00;100511.56;5000645;28;20050;-83
2022/05/23 04:41:21;;;;;;;28.20;25.65;;;;;;;15.57;100.00;100515.03;5000341;28;20474;-84
2022/05/23 04:43:59;;;;;;;26.98;25.10;;;;;;;15.60;100.00;100512.94;5001015;28;20046;-83
2022/05/23 04:46:27;;;;;;;27.17;25.40;;;;;;;15.77;100.00;100511.09;5001113;28;20061;-83
2022/05/23 04:51:45;;;;;;;27.70;25.80;;;;;;;15.66;100.00;100503.94;5000464;28;20049;-83
2022/05/23 04:54:14;;;;;;;27.90;25.92;;;;;;;16.00;100.00;100510.09;4992039;28;20490;-84
2022/05/23 04:56:41;;;;;;;27.50;25.45;;;;;;;15.99;100.00;100503.13;5000564;28;20105;-83
2022/05/23 04:59:08;;;;;;;28.23;26.38;;;;;;;15.74;100.00;100499.00;5000804;28;20124;-82
2022/05/23 05:01:35;;;;;;;28.45;26.10;;;;;;;15.79;100.00;100500.94;5002485;28;20050;-83
2022/05/23 05:04:02;;;;;;;26.85;25.15;;;;;;;16.08;100.00;100506.19;5020260;28;20057;-84
2022/05/23 05:06:28;;;;;;;26.88;24.90;;;;;;;16.33;100.00;100498.47;5020454;28;20113;-83
2022/05/23 05:08:55;;;;;;;25.52;23.75;;;;;;;16.08;100.00;100500.81;5020207;28;20045;-82
2022/05/23 05:11:29;;;;;;;27.85;25.33;;;;;;;16.05;100.00;100495.97;5020783;28;20120;-82
2022/05/23 05:13:57;;;;;;;25.58;23.77;;;;;;;16.45;100.00;100506.38;5020397;28;20077;-83
2022/05/23 05:16:31;;;;;;;26.50;24.60;;;;;;;16.83;100.00;100500.16;5019971;28;20409;-83
2022/05/23 05:19:04;;;;;;;24.00;22.23;;;;;;;16.48;100.00;100498.66;5019146;28;20525;-86
2022/05/23 05:21:41;;;;;;;24.50;22.75;;;;;;;16.91;100.00;100507.75;5019649;28;20046;-84
2022/05/23 05:24:17;;;;;;;23.42;22.00;;;;;;;17.13;100.00;100506.88;5020174;28;20073;-85
2022/05/23 05:26:49;;;;;;;23.20;21.67;;;;;;;17.34;100.00;100513.25;5020063;28;20060;-84
2022/05/23 05:29:16;;;;;;;23.50;21.58;;;;;;;17.50;100.00;100514.97;5017138;28;20046;-83
2022/05/23 05:31:48;;;;;;;22.10;20.80;;;;;;;17.19;100.00;100508.53;5019328;28;20490;-82
2022/05/23 05:34:24;;;;;;;23.23;21.40;;;;;;;17.39;100.00;100508.69;5020542;28;20049;-84
2022/05/23 05:37:34;;;;;;;24.10;22.75;;;;;;;17.45;100.00;100506.88;5033403;28;20125;-86
2022/05/23 05:40:03;;;;;;;23.88;22.15;;;;;;;17.31;100.00;100509.19;5023425;28;20466;-83
2022/05/23 05:42:38;;;;;;;23.80;22.50;;;;;;;17.86;100.00;100504.53;5019412;28;20100;-84
2022/05/23 05:45:09;;;;;;;23.88;22.48;;;;;;;17.78;100.00;100502.31;5019632;28;20085;-85
2022/05/23 05:47:40;;;;;;;35.65;32.35;;;;;;;17.99;100.00;100506.75;5016214;28;20050;-87
2022/05/23 05:50:10;;;;;;;25.10;23.30;;;;;;;17.70;100.00;100500.06;5015265;28;20050;-84
2022/05/23 05:52:50;;;;;;;24.80;23.10;;;;;;;17.85;100.00;100509.09;5022351;28;20436;-86
2022/05/23 05:55:19;;;;;;;25.23;23.60;;;;;;;18.39;100.00;100510.69;5024881;28;20045;-83
2022/05/23 05:57:48;;;;;;;25.73;24.25;;;;;;;18.17;100.00;100510.88;5019370;28;20046;-85
2022/05/23 06:00:28;;;;;;;23.45;22.08;;;;;;;18.07;100.00;100508.94;5027230;28;20107;-84
2022/05/23 06:02:55;;;;;;;25.45;23.60;;;;;;;17.95;100.00;100505.66;5014575;28;20058;-85
2022/05/23 06:05:22;;;;;;;24.60;22.73;;;;;;;18.06;100.00;100510.03;5017436;28;20112;-84
2022/05/23 06:13:21;;;;;;;24.88;23.23;;;;;;;18.37;100.00;100512.06;5012720;28;20053;-83
2022/05/23 06:15:48;;;;;;;26.30;24.92;;;;;;;18.46;100.00;100519.34;5016152;28;20042;-84
2022/05/23 06:18:15;;;;;;;26.38;24.98;;;;;;;18.57;100.00;100511.31;5015924;28;20045;-85
2022/05/23 06:20:42;;;;;;;26.33;24.85;;;;;;;18.50;100.00;100512.34;5016004;28;20049;-85
2022/05/23 06:23:16;;;;;;;26.90;25.58;;;;;;;18.66;100.00;100513.22;5025477;28;20483;-83
2022/05/23 06:25:42;;;;;;;25.95;24.23;;;;;;;18.58;100.00;100511.06;5016098;28;20046;-84
2022/05/23 06:28:34;;;;;;;25.88;24.42;;;;;;;19.17;97.94;100516.03;5016026;28;20112;-83
2022/05/23 06:31:10;;;;;;;27.88;26.38;;;;;;;18.79;94.24;100508.44;5016181;28;20050;-84
2022/05/23 06:33:39;;;;;;;26.92;25.25;;;;;;;19.03;96.68;100506.88;5008586;28;20037;-83
2022/05/23 06:36:14;;;;;;;28.90;26.85;;;;;;;18.85;90.10;100502.00;5022450;28;20045;-85
2022/05/23 06:38:42;;;;;;;26.95;25.60;;;;;;;19.21;90.06;100500.16;5016097;28;20478;-86
2022/05/23 06:41:13;;;;;;;26.13;24.60;;;;;;;19.21;87.39;100492.91;5015884;28;20482;-83
2022/05/23 06:43:49;;;;;;;27.00;25.10;;;;;;;19.20;86.58;100498.53;4999045;28;20147;-83
2022/05/23 06:46:23;;;;;;;27.75;26.05;;;;;;;19.00;91.68;100491.25;5012067;28;20046;-83
2022/05/23 06:48:58;;;;;;;27.23;25.42;;;;;;;18.85;88.70;100480.47;5015937;28;20046;-86
2022/05/23 06:51:27;;;;;;;27.20;25.60;;;;;;;19.50;96.25;100478.88;5024185;28;20045;-83
2022/05/23 06:54:01;;;;;;;26.27;24.67;;;;;;;19.54;92.42;100487.22;5021987;28;20049;-87
2022/05/23 06:56:29;;;;;;;27.15;25.55;;;;;;;19.78;100.00;100472.13;5016145;28;20108;-84
2022/05/23 06:59:20;;;;;;;27.80;26.00;;;;;;;19.55;90.03;100478.88;5015673;28;20077;-86
2022/05/23 07:01:47;;;;;;;27.10;25.67;;;;;;;19.98;87.78;100470.47;5014943;28;20120;-86
2022/05/23 07:04:15;;;;;;;26.83;25.23;;;;;;;20.37;86.89;100473.28;5015208;28;20490;-85
2022/05/23 07:12:57;;;;;;;27.77;25.67;;;;;;;19.79;84.53;100481.84;5013946;28;20069;-86
2022/05/23 07:15:46;;;;;;;26.98;25.00;;;;;;;19.74;84.52;100476.47;5014345;28;20060;-86
2022/05/23 07:18:22;;;;;;;26.58;25.05;;;;;;;19.85;88.71;100478.06;5013556;28;20403;-85
2022/05/23 07:21:15;;;;;;;25.95;24.55;;;;;;;20.21;88.27;100471.72;5013867;28;20537;-86
2022/05/23 07:23:50;;;;;;;24.58;23.20;;;;;;;20.52;85.60;100477.84;5015767;28;20052;-84
2022/05/23 07:26:37;;;;;;;27.45;25.80;;;;;;;20.46;95.17;100465.44;5015351;28;20050;-85
2022/05/23 07:29:15;;;;;;;27.20;25.67;;;;;;;20.73;81.28;100473.13;5015332;28;20089;-86
2022/05/23 07:31:47;;;;;;;27.80;26.02;;;;;;;20.80;77.73;100468.22;5015206;28;20471;-85
2022/05/23 07:34:28;;;;;;;27.27;25.73;;;;;;;20.66;70.54;100469.94;5015576;28;20045;-86
2022/05/23 07:36:59;;;;;;;26.23;24.50;;;;;;;20.67;70.74;100466.97;5015675;28;20054;-86
2022/05/23 07:39:56;;;;;;;27.90;26.00;;;;;;;20.67;70.17;100468.84;5015612;28;20054;-87
2022/05/23 07:42:31;;;;;;;27.05;25.55;;;;;;;20.36;67.43;100464.41;5013910;28;20073;-86
2022/05/23 07:45:05;;;;;;;29.00;27.30;;;;;;;21.13;70.73;100463.94;5015171;28;20046;-86
2022/05/23 07:47:47;;;;;;;28.60;26.80;;;;;;;21.42;70.99;100466.69;5015186;28;20042;-86
2022/05/23 07:50:36;;;;;;;28.98;27.45;;;;;;;21.78;84.53;100462.81;5015254;28;20045;-86
2022/05/23 08:01:51;;;;;;;27.58;25.80;;;;;;;21.73;74.27;100477.22;4968995;28;20513;-87
2022/05/23 08:04:38;;;;;;;25.75;24.25;;;;;;;21.88;70.35;100458.13;5014696;28;20053;-87
2022/05/23 08:07:23;;;;;;;26.15;24.45;;;;;;;21.85;69.53;100450.59;5001130;28;20068;-86
2022/05/23 08:10:12;;;;;;;26.90;25.02;;;;;;;22.25;72.89;100453.13;5015036;28;20068;-87
2022/05/23 08:12:58;;;;;;;26.10;24.70;;;;;;;22.00;66.69;100454.19;5014444;28;20049;-87
2022/05/23 08:15:31;;;;;;;28.58;26.85;;;;;;;21.95;67.47;100450.47;5014372;28;20053;-85
2022/05/23 08:18:16;;;;;;;29.83;27.92;;;;;;;22.40;63.29;100456.44;5014512;28;20054;-88
2022/05/23 08:20:53;;;;;;;29.33;26.85;;;;;;;22.30;65.42;100447.63;5013864;28;20503;-85
2022/05/23 08:23:23;;;;;;;28.95;26.98;;;;;;;22.71;73.04;100447.06;5006302;28;20060;-85
2022/05/23 08:26:02;;;;;;;27.83;26.02;;;;;;;23.20;70.53;100443.88;5014136;28;20491;-82
2022/05/23 08:28:56;;;;;;;30.40;28.40;;;;;;;23.19;62.50;100442.28;5014456;28;20141;-88
2022/05/23 08:31:23;;;;;;;28.25;26.30;;;;;;;22.80;62.68;100445.31;4976371;28;20077;-85
2022/05/23 08:33:57;;;;;;;30.52;28.92;;;;;;;22.80;63.34;100446.09;5013834;28;20065;-86
2022/05/23 08:36:47;;;;;;;29.42;27.83;;;;;;;22.47;61.76;100437.13;5009732;28;20053;-85
2022/05/23 08:39:23;;;;;;;27.27;25.70;;;;;;;22.73;58.08;100442.97;4989312;28;20081;-86
2022/05/23 08:42:11;;;;;;;28.40;26.70;;;;;;;22.36;58.49;100438.34;5014295;28;20057;-86
2022/05/23 08:44:45;;;;;;;27.42;25.65;;;;;;;22.66;57.07;100437.13;5014214;28;20056;-86
2022/05/23 08:47:21;;;;;;;27.85;26.20;;;;;;;22.64;56.95;100436.63;5013109;28;20074;-86
2022/05/23 08:49:59;;;;;;;27.65;26.15;;;;;;;22.70;56.44;100430.03;5013151;28;20145;-85
2022/05/23 08:52:45;;;;;;;27.88;26.15;;;;;;;22.88;56.77;100430.31;5013535;28;20042;-84
2022/05/23 08:55:39;;;;;;;;;;;;;;;;;;;;;
2022/05/23 08:58:34;;;;;;;28.05;26.00;;;;;;;22.69;60.43;100424.91;5013634;28;20065;-86
2022/05/23 09:01:12;;;;;;;28.58;26.60;;;;;;;22.54;63.61;100429.47;5006462;28;20395;-87
2022/05/23 09:03:56;;;;;;;27.25;25.70;;;;;;;22.70;59.15;100429.22;5013158;28;20086;-88
2022/05/23 09:06:48;;;;;;;28.48;26.67;;;;;;;23.50;57.69;100422.75;5012087;28;20120;-85
2022/05/23 09:09:36;;;;;;;27.83;26.20;;;;;;;23.59;59.72;100431.81;5013134;28;20049;-87
2022/05/23 09:12:26;;;;;;;27.55;25.75;;;;;;;23.17;57.44;100422.78;5002422;28;20054;-86
2022/05/23 09:15:04;;;;;;;27.52;25.67;;;;;;;23.08;58.36;100425.38;4990467;28;20200;-86
2022/05/23 09:17:54;;;;;;;27.45;25.65;;;;;;;24.04;63.97;100423.09;5013487;28;20056;-85
2022/05/23 09:23:53;;;;;;;28.88;26.98;;;;;;;24.67;60.96;100408.72;5010652;28;20061;-84
2022/05/23 09:26:59;;;;;;;31.83;29.92;;;;;;;24.04;55.77;100417.69;5024501;28;20521;-87
2022/05/23 09:29:31;;;;;;;27.73;26.15;;;;;;;24.77;58.32;100413.09;5004097;28;20108;-85
2022/05/23 09:32:06;;;;;;;28.38;26.63;;;;;;;25.17;58.02;100421.38;5016479;28;20397;-87
2022/05/23 09:34:57;;;;;;;26.48;24.65;;;;;;;23.97;55.43;100418.91;5016233;28;20092;-87
2022/05/23 09:37:48;;;;;;;29.17;27.58;;;;;;;23.13;52.62;100426.41;5016229;28;20045;-89
2022/05/23 09:40:47;;;;;;;29.73;28.02;;;;;;;23.03;56.21;100425.47;5016399;28;20398;-88
2022/05/23 09:49:20;;;;;;;29.90;28.13;;;;;;;23.79;64.35;100419.00;5001627;28;20083;-88
2022/05/23 09:52:01;;;;;;;28.00;26.40;;;;;;;24.62;60.06;100416.97;5017061;28;20127;-86
2022/05/23 09:54:40;;;;;;;28.95;27.35;;;;;;;23.71;59.76;100426.72;5009119;28;20057;-84
2022/05/23 09:57:19;;;;;;;29.77;27.40;;;;;;;24.20;65.96;100413.53;5013360;28;20123;-85
2022/05/23 10:00:03;;;;;;;29.67;27.65;;;;;;;25.03;60.17;100421.44;5024762;28;20065;-84
2022/05/23 10:02:38;;;;;;;33.28;30.83;;;;;;;24.92;55.36;100416.25;5012933;28;20064;-85
2022/05/23 10:05:27;;;;;;;28.70;27.20;;;;;;;24.06;53.53;100423.63;5021186;28;20113;-84
2022/05/23 10:08:12;;;;;;;28.58;26.50;;;;;;;25.16;59.94;100417.84;5024460;28;20066;-86
2022/05/23 10:11:18;;;;;;;29.67;27.60;;;;;;;25.83;55.23;100416.09;5016971;28;20045;-87
2022/05/23 10:14:19;;;;;;;44.65;42.25;;;;;;;24.96;58.57;100423.75;5012958;28;20045;-87
2022/05/23 10:16:56;;;;;;;48.60;45.95;;;;;;;26.10;51.51;100420.50;4971835;28;20129;-88
2022/05/23 10:19:34;;;;;;;29.38;27.73;;;;;;;25.27;57.86;100421.13;5017899;28;20046;-85
2022/05/23 10:22:29;;;;;;;30.63;28.88;;;;;;;25.74;52.45;100419.56;5008604;28;20058;-84
2022/05/23 10:25:14;;;;;;;28.85;27.25;;;;;;;24.63;51.16;100418.56;5014087;28;20449;-84
2022/05/23 10:30:59;;;;;;;;;;;;;;;23.84;49.74;100406.13;4916577;29;20139;-86
2022/05/23 10:33:47;;;;;;;28.70;26.95;;;;;;;24.22;49.42;100398.56;4917582;29;19923;-84
2022/05/23 10:36:30;;;;;;;28.67;26.88;;;;;;;24.81;51.59;100395.06;5006169;28;20163;-86
2022/05/23 10:42:10;;;;;;;30.83;28.90;;;;;;;24.52;49.35;100390.06;5014722;28;19932;-87
2022/05/23 10:45:14;;;;;;;29.23;27.63;;;;;;;25.09;52.82;100390.31;5016397;28;20066;-85
2022/05/23 10:48:02;;;;;;;27.80;26.00;;;;;;;25.87;49.51;100379.81;5016595;28;20042;-86
2022/05/23 10:51:11;;;;;;;27.55;25.52;;;;;;;25.02;50.33;100388.00;5011647;28;20049;-87
2022/05/23 10:54:18;;;;;;;27.48;25.77;;;;;;;24.47;48.95;100396.41;5001305;28;20541;-86
2022/05/23 10:57:09;;;;;;;29.50;27.35;;;;;;;24.32;45.62;100383.16;5022463;28;20052;-86
2022/05/23 11:02:53;;;;;;;26.92;25.20;;;;;;;26.14;47.20;100376.00;5007664;28;20489;-86
2022/05/23 11:05:48;;;;;;;27.27;25.58;;;;;;;26.64;50.02;100377.47;5015699;28;20054;-86
2022/05/23 11:08:41;;;;;;;27.98;25.73;;;;;;;26.57;55.52;100377.97;5015971;28;20050;-86
2022/05/23 11:11:35;;;;;;;28.00;26.20;;;;;;;26.28;49.35;100368.47;5015829;28;20053;-87
2022/05/23 11:14:28;;;;;;;27.33;25.58;;;;;;;25.63;55.65;100368.50;5013935;28;20095;-85
2022/05/23 11:17:27;;;;;;;;;;;;;;;;;;;;;
2022/05/23 11:20:16;;;;;;;27.45;25.75;;;;;;;26.02;49.44;100371.19;5006092;28;20050;-85
2022/05/23 11:22:56;;;;;;;30.40;28.70;;;;;;;24.93;47.85;100376.28;5012308;28;20050;-85
2022/05/23 11:25:40;;;;;;;28.17;26.48;;;;;;;25.68;51.21;100374.59;5016064;28;20100;-87
2022/05/23 11:34:22;;;;;;;27.45;25.65;;;;;;;28.12;45.24;100357.84;5014287;28;20049;-88
2022/05/23 11:37:42;;;;;;;29.00;27.38;;;;;;;26.23;49.20;100370.56;5019388;28;20045;-84
2022/05/23 11:40:01;;;;;;;29.27;27.50;;;;;;;26.77;48.96;100367.53;5010580;28;20049;-84
2022/05/23 11:42:42;;;;;;;29.48;27.60;;;;;;;28.32;47.39;100365.22;5014368;28;20041;-84
2022/05/23 11:48:43;;;;;;;29.48;27.40;;;;;;;27.75;50.80;100374.75;5006466;28;20045;-86
2022/05/23 11:51:36;;;;;;;29.13;27.38;;;;;;;26.85;47.87;100364.78;5013234;28;20088;-87
2022/05/23 11:54:08;;;;;;;30.55;28.67;;;;;;;27.22;51.14;100359.75;5014785;28;20089;-86
2022/05/23 11:57:19;;;;;;;29.55;27.50;;;;;;;28.46;46.73;100360.31;5013985;28;20053;-84
2022/05/23 12:00:29;;;;;;;27.67;25.85;;;;;;;27.23;46.15;100357.81;5003538;28;20050;-84
2022/05/23 12:03:12;;;;;;;27.75;25.90;;;;;;;27.59;45.61;100351.88;5013306;28;20054;-85
2022/05/23 12:05:44;;;;;;;28.17;26.27;;;;;;;26.18;47.14;100357.13;5013952;28;20077;-83
2022/05/23 12:08:32;;;;;;;28.48;26.58;;;;;;;26.89;47.96;100356.75;5014145;28;20049;-83
2022/05/23 12:11:02;;;;;;;29.38;27.45;;;;;;;27.22;47.96;100373.38;5012026;28;20417;-85
2022/05/23 12:13:51;;;;;;;27.73;25.92;;;;;;;27.96;47.42;100350.25;5014264;28;20054;-87
2022/05/23 12:16:41;;;;;;;30.25;27.90;;;;;;;27.42;46.54;100358.22;5014391;28;20108;-84
2022/05/23 12:19:28;;;;;;;28.05;26.33;;;;;;;27.07;48.98;100361.03;5013941;28;20050;-87
2022/05/23 12:22:14;;;;;;;27.83;25.85;;;;;;;26.87;51.15;100359.81;5013418;28;20046;-82
2022/05/23 12:24:56;;;;;;;28.67;26.92;;;;;;;26.73;49.33;100360.00;5011836;28;20497;-83
2022/05/23 12:27:29;;;;;;;29.38;27.30;;;;;;;27.08;50.38;100361.84;5016561;28;20053;-84
2022/05/23 12:30:28;;;;;;;27.92;26.23;;;;;;;27.80;47.95;100352.75;5013662;28;20084;-83
2022/05/23 12:33:04;;;;;;;27.27;25.58;;;;;;;26.08;50.84;100362.88;5013917;28;20116;-85
2022/05/23 12:35:46;;;;;;;26.98;25.27;;;;;;;27.68;44.54;100354.56;5013864;28;20046;-84
2022/05/23 12:38:19;;;;;;;;;;;;;;;27.37;45.67;100358.41;5012228;28;20068;-85
2022/05/23 12:40:50;;;;;;;30.40;28.05;;;;;;;26.81;44.71;100357.56;5012278;28;19932;-84
2022/05/23 12:43:29;;;;;;;27.75;25.85;;;;;;;26.82;44.36;100359.19;5013466;28;20133;-87
2022/05/23 12:46:14;;;;;;;27.48;25.70;;;;;;;26.60;48.44;100362.91;5014196;28;20104;-84
2022/05/23 12:49:11;;;;;;;28.05;26.25;;;;;;;27.07;44.54;100355.59;5011975;28;20471;-84
2022/05/23 12:52:31;;;;;;;27.25;25.65;;;;;;;26.67;46.72;100364.00;5008517;28;20057;-87
2022/05/23 12:55:29;;;;;;;27.10;25.40;;;;;;;26.21;48.77;100356.50;5025346;28;20093;-84
2022/05/23 12:58:33;;;;;;;27.50;25.70;;;;;;;27.27;47.54;100354.13;5014867;28;20045;-85
2022/05/23 13:01:04;;;;;;;28.48;26.58;;;;;;;26.80;44.21;100353.25;5015857;28;20054;-86
2022/05/23 13:03:52;;;;;;;27.63;25.23;;;;;;;26.12;48.66;100358.41;5013266;28;20076;-86